sensor_id;sensor_type;location;lat;lon;timestamp;pressure;altitude;pressure_sealevel;temperature;humidity
62634;BME280;48704;50.534;6.442;2023-02-13T00:01:53;97359.94;;;2.71;100.00
62634;BME280;48704;50.534;6.442;2023-02-13T00:04:18;97352.06;;;2.73;100.00
62634;BME280;48704;50.534;6.442;2023-02-13T00:06:44;97362.22;;;2.61;100.00
62634;BME280;48704;50.534;6.442;2023-02-13T00:09:12;97361.44;;;2.64;100.00
62634;BME280;48704;50.534;6.442;2023-02-13T00:11:37;97360.63;;;2.60;100.00
62634;BME280;48704;50.534;6.442;2023-02-13T00:14:02;97357.19;;;2.71;100.00
62634;BME280;48704;50.534;6.442;2023-02-13T00:16:28;97352.84;;;2.69;100.00
62634;BME280;48704;50.534;6.442;2023-02-13T00:18:53;97350.13;;;2.77;100.00
62634;BME280;48704;50.534;6.442;2023-02-13T00:21:18;97353.56;;;2.63;100.00
62634;BME280;48704;50.534;6.442;2023-02-13T00:23:44;97350.97;;;2.81;100.00
62634;BME280;48704;50.534;6.442;2023-02-13T00:26:12;97359.22;;;2.81;100.00
62634;BME280;48704;50.534;6.442;2023-02-13T00:28:38;97360.00;;;2.81;100.00
62634;BME280;48704;50.534;6.442;2023-02-13T00:31:19;97353.69;;;2.77;100.00
62634;BME280;48704;50.534;6.442;2023-02-13T00:33:45;97355.28;;;2.82;100.00
62634;BME280;48704;50.534;6.442;2023-02-13T00:36:19;97348.19;;;2.81;100.00
62634;BME280;48704;50.534;6.442;2023-02-13T00:38:45;97350.59;;;2.86;100.00
62634;BME280;48704;50.534;6.442;2023-02-13T00:41:11;97345.91;;;2.90;100.00
62634;BME280;48704;50.534;6.442;2023-02-13T00:43:37;97346.25;;;2.85;100.00
62634;BME280;48704;50.534;6.442;2023-02-13T00:46:03;97349.84;;;2.89;100.00
62634;BME280;48704;50.534;6.442;2023-02-13T00:48:30;97343.16;;;2.90;100.00
62634;BME280;48704;50.534;6.442;2023-02-13T00:50:56;97349.47;;;2.94;100.00
62634;BME280;48704;50.534;6.442;2023-02-13T00:53:23;97348.25;;;2.88;100.00
62634;BME280;48704;50.534;6.442;2023-02-13T00:55:49;97347.47;;;2.87;100.00
62634;BME280;48704;50.534;6.442;2023-02-13T00:58:16;97341.19;;;2.90;100.00
62634;BME280;48704;50.534;6.442;2023-02-13T01:00:42;97353.00;;;2.91;100.00
62634;BME280;48704;50.534;6.442;2023-02-13T01:03:07;97346.25;;;2.81;100.00
62634;BME280;48704;50.534;6.442;2023-02-13T01:05:33;97346.66;;;2.83;100.00
62634;BME280;48704;50.534;6.442;2023-02-13T01:07:59;97349.44;;;2.90;100.00
62634;BME280;48704;50.534;6.442;2023-02-13T01:10:24;97345.13;;;2.93;100.00
62634;BME280;48704;50.534;6.442;2023-02-13T01:12:50;97342.00;;;2.94;100.00
62634;BME280;48704;50.534;6.442;2023-02-13T01:15:16;97337.66;;;2.93;100.00
62634;BME280;48704;50.534;6.442;2023-02-13T01:17:41;97349.81;;;2.85;100.00
62634;BME280;48704;50.534;6.442;2023-02-13T01:20:08;97345.13;;;2.93;100.00
62634;BME280;48704;50.534;6.442;2023-02-13T01:22:34;97344.31;;;2.85;100.00
62634;BME280;48704;50.534;6.442;2023-02-13T01:24:59;97332.50;;;2.85;100.00
62634;BME280;48704;50.534;6.442;2023-02-13T01:27:26;97334.47;;;2.88;100.00
62634;BME280;48704;50.534;6.442;2023-02-13T01:29:51;97331.72;;;2.84;100.00
62634;BME280;48704;50.534;6.442;2023-02-13T01:32:17;97337.19;;;2.81;100.00
62634;BME280;48704;50.534;6.442;2023-02-13T01:34:42;97332.16;;;2.93;100.00
62634;BME280;48704;50.534;6.442;2023-02-13T01:37:07;97340.34;;;2.83;100.00
62634;BME280;48704;50.534;6.442;2023-02-13T01:39:33;97341.88;;;2.77;100.00
62634;BME280;48704;50.534;6.442;2023-02-13T01:41:58;97332.53;;;2.88;100.00
62634;BME280;48704;50.534;6.442;2023-02-13T01:44:52;97329.34;;;2.83;100.00
62634;BME280;48704;50.534;6.442;2023-02-13T01:50:05;97329.75;;;2.85;100.00
62634;BME280;48704;50.534;6.442;2023-02-13T01:52:32;97329.75;;;2.85;100.00
62634;BME280;48704;50.534;6.442;2023-02-13T01:54:59;97332.44;;;2.78;100.00
62634;BME280;48704;50.534;6.442;2023-02-13T01:57:26;97322.22;;;2.75;100.00
62634;BME280;48704;50.534;6.442;2023-02-13T02:00:07;97330.81;;;2.69;100.00
62634;BME280;48704;50.534;6.442;2023-02-13T02:02:36;97334.78;;;2.72;100.00
62634;BME280;48704;50.534;6.442;2023-02-13T02:05:04;97324.56;;;2.73;100.00
62634;BME280;48704;50.534;6.442;2023-02-13T02:07:30;97340.69;;;2.74;100.00
62634;BME280;48704;50.534;6.442;2023-02-13T02:10:02;97336.31;;;2.69;100.00
62634;BME280;48704;50.534;6.442;2023-02-13T02:12:37;97337.16;;;2.74;100.00
62634;BME280;48704;50.534;6.442;2023-02-13T02:15:05;97330.81;;;2.69;100.00
62634;BME280;48704;50.534;6.442;2023-02-13T02:17:31;97337.09;;;2.66;100.00
62634;BME280;48704;50.534;6.442;2023-02-13T02:20:07;97338.25;;;2.62;100.00
62634;BME280;48704;50.534;6.442;2023-02-13T02:25:49;97341.84;;;2.69;100.00
62634;BME280;48704;50.534;6.442;2023-02-13T02:34:24;97333.91;;;2.61;100.00
62634;BME280;48704;50.534;6.442;2023-02-13T02:37:24;97334.72;;;2.65;100.00
62634;BME280;48704;50.534;6.442;2023-02-13T02:45:25;97333.91;;;2.57;100.00
62634;BME280;48704;50.534;6.442;2023-02-13T02:47:59;97331.53;;;2.56;100.00
62634;BME280;48704;50.534;6.442;2023-02-13T02:50:50;97327.59;;;2.53;100.00
62634;BME280;48704;50.534;6.442;2023-02-13T02:53:22;97332.28;;;2.49;100.00
62634;BME280;48704;50.534;6.442;2023-02-13T02:58:35;97327.13;;;2.44;100.00
62634;BME280;48704;50.534;6.442;2023-02-13T03:01:24;97330.72;;;2.52;100.00
62634;BME280;48704;50.534;6.442;2023-02-13T03:04:16;97325.94;;;2.45;100.00
62634;BME280;48704;50.534;6.442;2023-02-13T03:07:06;97326.72;;;2.42;100.00
62634;BME280;48704;50.534;6.442;2023-02-13T03:09:36;97321.97;;;2.39;100.00
62634;BME280;48704;50.534;6.442;2023-02-13T03:12:26;97329.00;;;2.33;100.00
62634;BME280;48704;50.534;6.442;2023-02-13T03:15:12;97326.66;;;2.35;100.00
62634;BME280;48704;50.534;6.442;2023-02-13T03:17:37;97328.28;;;2.40;100.00
62634;BME280;48704;50.534;6.442;2023-02-13T03:26:45;97328.22;;;2.32;100.00
62634;BME280;48704;50.534;6.442;2023-02-13T03:29:27;97330.94;;;2.29;100.00
62634;BME280;48704;50.534;6.442;2023-02-13T03:32:37;97329.00;;;2.33;100.00
62634;BME280;48704;50.534;6.442;2023-02-13T03:35:40;97332.13;;;2.31;100.00
62634;BME280;48704;50.534;6.442;2023-02-13T03:38:42;97328.19;;;2.29;100.00
62634;BME280;48704;50.534;6.442;2023-02-13T03:41:18;97336.81;;;2.27;100.00
62634;BME280;48704;50.534;6.442;2023-02-13T03:44:17;97332.09;;;2.28;100.00
62634;BME280;48704;50.534;6.442;2023-02-13T03:46:49;97342.38;;;2.34;100.00
62634;BME280;48704;50.534;6.442;2023-02-13T03:49:21;97337.66;;;2.35;100.00
62634;BME280;48704;50.534;6.442;2023-02-13T03:52:16;97336.50;;;2.36;100.00
62634;BME280;48704;50.534;6.442;2023-02-13T03:54:46;97336.84;;;2.31;100.00
62634;BME280;48704;50.534;6.442;2023-02-13T03:57:33;97339.25;;;2.36;100.00
62634;BME280;48704;50.534;6.442;2023-02-13T04:00:20;97338.00;;;2.30;100.00
62634;BME280;48704;50.534;6.442;2023-02-13T04:03:19;97334.03;;;2.20;100.00
62634;BME280;48704;50.534;6.442;2023-02-13T04:05:52;97339.53;;;2.24;100.00
62634;BME280;48704;50.534;6.442;2023-02-13T04:08:18;97343.06;;;2.21;100.00
62634;BME280;48704;50.534;6.442;2023-02-13T04:10:58;97337.16;;;2.19;100.00
62634;BME280;48704;50.534;6.442;2023-02-13T04:13:37;97353.28;;;2.24;100.00
62634;BME280;48704;50.534;6.442;2023-02-13T04:16:34;97344.66;;;2.25;100.00
62634;BME280;48704;50.534;6.442;2023-02-13T04:19:02;97348.16;;;2.19;100.00
62634;BME280;48704;50.534;6.442;2023-02-13T04:21:32;97350.91;;;2.19;100.00
62634;BME280;48704;50.534;6.442;2023-02-13T04:23:57;97348.94;;;2.19;100.00
62634;BME280;48704;50.534;6.442;2023-02-13T04:26:23;97347.72;;;2.13;100.00
62634;BME280;48704;50.534;6.442;2023-02-13T04:28:48;97343.75;;;2.11;100.00
62634;BME280;48704;50.534;6.442;2023-02-13T04:31:14;97338.72;;;2.16;100.00
62634;BME280;48704;50.534;6.442;2023-02-13T04:33:39;97341.44;;;2.13;100.00
62634;BME280;48704;50.534;6.442;2023-02-13T04:36:05;97346.09;;;2.09;100.00
62634;BME280;48704;50.534;6.442;2023-02-13T04:38:30;97339.72;;;1.97;100.00
62634;BME280;48704;50.534;6.442;2023-02-13T04:40:55;97336.53;;;1.95;100.00
62634;BME280;48704;50.534;6.442;2023-02-13T04:43:21;97337.44;;;2.07;100.00
62634;BME280;48704;50.534;6.442;2023-02-13T04:45:47;97336.13;;;1.93;100.00
62634;BME280;48704;50.534;6.442;2023-02-13T04:48:13;97332.94;;;1.84;100.00
62634;BME280;48704;50.534;6.442;2023-02-13T04:50:38;97331.03;;;1.95;100.00
62634;BME280;48704;50.534;6.442;2023-02-13T04:53:03;97335.84;;;2.06;100.00
62634;BME280;48704;50.534;6.442;2023-02-13T04:55:29;97326.25;;;1.85;100.00
62634;BME280;48704;50.534;6.442;2023-02-13T04:57:54;97332.63;;;1.96;100.00
62634;BME280;48704;50.534;6.442;2023-02-13T05:00:21;97335.03;;;2.01;100.00
62634;BME280;48704;50.534;6.442;2023-02-13T05:02:47;97325.94;;;1.94;100.00
62634;BME280;48704;50.534;6.442;2023-02-13T05:05:12;97324.84;;;2.06;100.00
62634;BME280;48704;50.534;6.442;2023-02-13T05:07:38;97325.53;;;1.95;100.00
62634;BME280;48704;50.534;6.442;2023-02-13T05:10:03;97329.91;;;2.00;100.00
62634;BME280;48704;50.534;6.442;2023-02-13T05:12:29;97327.19;;;2.04;100.00
62634;BME280;48704;50.534;6.442;2023-02-13T05:14:54;97324.00;;;1.98;100.00
62634;BME280;48704;50.534;6.442;2023-02-13T05:17:19;97330.22;;;1.91;100.00
62634;BME280;48704;50.534;6.442;2023-02-13T05:19:45;97331.88;;;1.99;100.00
62634;BME280;48704;50.534;6.442;2023-02-13T05:22:10;97330.28;;;1.98;100.00
62634;BME280;48704;50.534;6.442;2023-02-13T05:24:54;97332.56;;;1.89;100.00
62634;BME280;48704;50.534;6.442;2023-02-13T05:27:19;97338.06;;;1.89;100.00
62634;BME280;48704;50.534;6.442;2023-02-13T05:29:45;97334.91;;;1.87;100.00
62634;BME280;48704;50.534;6.442;2023-02-13T05:32:11;97327.81;;;1.83;100.00
62634;BME280;48704;50.534;6.442;2023-02-13T05:34:36;97331.75;;;1.85;100.00
62634;BME280;48704;50.534;6.442;2023-02-13T05:37:01;97337.97;;;1.79;100.00
62634;BME280;48704;50.534;6.442;2023-02-13T05:39:27;97337.25;;;1.85;100.00
62634;BME280;48704;50.534;6.442;2023-02-13T05:41:52;97337.19;;;1.78;100.00
62634;BME280;48704;50.534;6.442;2023-02-13T05:44:17;97338.38;;;1.81;100.00
62634;BME280;48704;50.534;6.442;2023-02-13T05:46:43;97338.34;;;1.77;100.00
62634;BME280;48704;50.534;6.442;2023-02-13T05:49:09;97341.88;;;1.78;100.00
62634;BME280;48704;50.534;6.442;2023-02-13T05:51:35;97345.84;;;1.80;100.00
62634;BME280;48704;50.534;6.442;2023-02-13T05:54:00;97339.56;;;1.80;100.00
62634;BME280;48704;50.534;6.442;2023-02-13T05:56:26;97345.81;;;1.77;100.00
62634;BME280;48704;50.534;6.442;2023-02-13T05:58:54;97342.69;;;1.78;100.00
62634;BME280;48704;50.534;6.442;2023-02-13T06:01:20;97344.38;;;1.93;100.00
62634;BME280;48704;50.534;6.442;2023-02-13T06:03:46;97341.63;;;1.93;100.00
62634;BME280;48704;50.534;6.442;2023-02-13T06:06:11;97341.97;;;1.88;100.00
62634;BME280;48704;50.534;6.442;2023-02-13T06:08:37;97347.13;;;1.93;100.00
62634;BME280;48704;50.534;6.442;2023-02-13T06:11:03;97341.25;;;1.95;100.00
62634;BME280;48704;50.534;6.442;2023-02-13T06:13:28;97350.28;;;1.95;100.00
62634;BME280;48704;50.534;6.442;2023-02-13T06:15:54;97348.25;;;1.85;100.00
62634;BME280;48704;50.534;6.442;2023-02-13T06:18:19;97348.13;;;1.75;100.00
62634;BME280;48704;50.534;6.442;2023-02-13T06:20:44;97342.34;;;1.87;100.00
62634;BME280;48704;50.534;6.442;2023-02-13T06:23:10;97345.13;;;1.90;100.00
62634;BME280;48704;50.534;6.442;2023-02-13T06:25:36;97336.03;;;1.79;100.00
62634;BME280;48704;50.534;6.442;2023-02-13T06:28:02;97344.31;;;1.83;100.00
62634;BME280;48704;50.534;6.442;2023-02-13T06:30:27;97345.09;;;1.83;100.00
62634;BME280;48704;50.534;6.442;2023-02-13T06:32:53;97335.94;;;1.72;100.00
62634;BME280;48704;50.534;6.442;2023-02-13T06:35:18;97330.91;;;1.78;100.00
62634;BME280;48704;50.534;6.442;2023-02-13T06:37:44;97343.50;;;1.82;100.00
62634;BME280;48704;50.534;6.442;2023-02-13T06:40:10;97338.00;;;1.82;100.00
62634;BME280;48704;50.534;6.442;2023-02-13T06:42:35;97343.72;;;1.66;100.00
62634;BME280;48704;50.534;6.442;2023-02-13T06:45:01;97337.66;;;1.87;100.00
62634;BME280;48704;50.534;6.442;2023-02-13T06:47:26;97341.22;;;1.91;100.00
62634;BME280;48704;50.534;6.442;2023-02-13T06:49:51;97347.06;;;1.86;100.00
62634;BME280;48704;50.534;6.442;2023-02-13T06:52:17;97347.34;;;1.74;100.00
62634;BME280;48704;50.534;6.442;2023-02-13T06:54:42;97343.44;;;1.75;100.00
62634;BME280;48704;50.534;6.442;2023-02-13T06:57:07;97345.81;;;1.77;100.00
62634;BME280;48704;50.534;6.442;2023-02-13T06:59:33;97333.00;;;1.54;100.00
62634;BME280;48704;50.534;6.442;2023-02-13T07:01:58;97335.22;;;1.42;100.00
62634;BME280;48704;50.534;6.442;2023-02-13T07:04:23;97335.28;;;1.49;100.00
62634;BME280;48704;50.534;6.442;2023-02-13T07:06:49;97346.28;;;1.49;100.00
62634;BME280;48704;50.534;6.442;2023-02-13T07:09:14;97348.03;;;1.64;100.00
62634;BME280;48704;50.534;6.442;2023-02-13T07:11:41;97344.72;;;1.88;100.00
62634;BME280;48704;50.534;6.442;2023-02-13T07:14:06;97345.63;;;1.99;100.00
62634;BME280;48704;50.534;6.442;2023-02-13T07:16:32;97346.06;;;2.05;100.00
62634;BME280;48704;50.534;6.442;2023-02-13T07:18:57;97346.09;;;2.09;100.00
62634;BME280;48704;50.534;6.442;2023-02-13T07:21:23;97336.69;;;2.10;100.00
62634;BME280;48704;50.534;6.442;2023-02-13T07:23:48;97346.72;;;1.91;100.00
62634;BME280;48704;50.534;6.442;2023-02-13T07:26:13;97338.06;;;1.89;100.00
62634;BME280;48704;50.534;6.442;2023-02-13T07:28:40;97339.19;;;1.81;100.00
62634;BME280;48704;50.534;6.442;2023-02-13T07:31:06;97343.56;;;1.89;100.00
62634;BME280;48704;50.534;6.442;2023-02-13T07:33:32;97342.69;;;1.78;100.00
62634;BME280;48704;50.534;6.442;2023-02-13T07:35:58;97330.06;;;1.74;100.00
62634;BME280;48704;50.534;6.442;2023-02-13T07:38:23;97339.22;;;1.88;100.00
62634;BME280;48704;50.534;6.442;2023-02-13T07:40:48;97332.31;;;2.05;100.00
62634;BME280;48704;50.534;6.442;2023-02-13T07:43:13;97328.94;;;2.22;100.00
62634;BME280;48704;50.534;6.442;2023-02-13T07:45:39;97335.25;;;2.30;100.00
62634;BME280;48704;50.534;6.442;2023-02-13T07:48:04;97334.69;;;2.54;100.00
62634;BME280;48704;50.534;6.442;2023-02-13T07:50:30;97333.84;;;2.50;100.00
62634;BME280;48704;50.534;6.442;2023-02-13T07:53:00;97337.06;;;2.63;100.00
62634;BME280;48704;50.534;6.442;2023-02-13T07:55:27;97337.09;;;2.66;100.00
62634;BME280;48704;50.534;6.442;2023-02-13T07:57:53;97341.00;;;2.65;100.00
62634;BME280;48704;50.534;6.442;2023-02-13T08:00:19;97342.66;;;2.74;100.00
62634;BME280;48704;50.534;6.442;2023-02-13T08:02:45;97336.31;;;2.69;100.00
62634;BME280;48704;50.534;6.442;2023-02-13T08:05:11;97333.22;;;2.75;100.00
62634;BME280;48704;50.534;6.442;2023-02-13T08:07:37;97347.47;;;2.91;100.00
62634;BME280;48704;50.534;6.442;2023-02-13T08:10:05;97338.06;;;2.92;100.00
62634;BME280;48704;50.534;6.442;2023-02-13T08:12:50;97349.88;;;3.03;100.00
62634;BME280;48704;50.534;6.442;2023-02-13T08:15:16;97344.47;;;3.17;100.00
62634;BME280;48704;50.534;6.442;2023-02-13T08:17:41;97343.66;;;3.17;100.00
62634;BME280;48704;50.534;6.442;2023-02-13T08:20:08;97346.00;;;3.11;100.00
62634;BME280;48704;50.534;6.442;2023-02-13T08:22:34;97345.28;;;3.21;100.00
62634;BME280;48704;50.534;6.442;2023-02-13T08:25:00;97345.31;;;3.35;100.00
62634;BME280;48704;50.534;6.442;2023-02-13T08:27:25;97352.03;;;3.42;100.00
62634;BME280;48704;50.534;6.442;2023-02-13T08:29:52;97350.06;;;3.46;100.00
62634;BME280;48704;50.534;6.442;2023-02-13T08:32:17;97353.25;;;3.55;100.00
62634;BME280;48704;50.534;6.442;2023-02-13T08:34:42;97359.59;;;3.73;100.00
62634;BME280;48704;50.534;6.442;2023-02-13T08:37:08;97357.28;;;3.82;100.00
62634;BME280;48704;50.534;6.442;2023-02-13T08:39:33;97365.97;;;3.95;100.00
62634;BME280;48704;50.534;6.442;2023-02-13T08:41:58;97364.81;;;3.99;100.00
62634;BME280;48704;50.534;6.442;2023-02-13T08:44:24;97357.72;;;4.06;100.00
62634;BME280;48704;50.534;6.442;2023-02-13T08:46:49;97360.47;;;4.13;100.00
62634;BME280;48704;50.534;6.442;2023-02-13T08:49:14;97370.75;;;4.30;100.00
62634;BME280;48704;50.534;6.442;2023-02-13T08:51:39;97366.81;;;4.31;100.00
62634;BME280;48704;50.534;6.442;2023-02-13T08:54:05;97368.41;;;4.43;100.00
62634;BME280;48704;50.534;6.442;2023-02-13T08:56:30;97367.59;;;4.49;100.00
62634;BME280;48704;50.534;6.442;2023-02-13T08:58:55;97364.81;;;4.56;100.00
62634;BME280;48704;50.534;6.442;2023-02-13T09:01:21;97366.78;;;4.66;100.00
62634;BME280;48704;50.534;6.442;2023-02-13T09:03:48;97366.41;;;4.79;100.00
62634;BME280;48704;50.534;6.442;2023-02-13T09:06:13;97362.03;;;4.88;100.00
62634;BME280;48704;50.534;6.442;2023-02-13T09:08:39;97369.09;;;5.07;100.00
62634;BME280;48704;50.534;6.442;2023-02-13T09:11:04;97361.19;;;5.16;100.00
62634;BME280;48704;50.534;6.442;2023-02-13T09:13:32;97372.19;;;5.30;100.00
62634;BME280;48704;50.534;6.442;2023-02-13T09:16:07;97370.16;;;5.45;100.00
62634;BME280;48704;50.534;6.442;2023-02-13T09:18:33;97368.88;;;5.67;100.00
62634;BME280;48704;50.534;6.442;2023-02-13T09:21:01;97371.16;;;5.90;100.00
62634;BME280;48704;50.534;6.442;2023-02-13T09:23:30;97369.47;;;6.07;100.00
62634;BME280;48704;50.534;6.442;2023-02-13T09:26:04;97381.84;;;6.47;100.00
62634;BME280;48704;50.534;6.442;2023-02-13T09:28:32;97382.09;;;7.08;100.00
62634;BME280;48704;50.534;6.442;2023-02-13T09:30:58;97373.91;;;7.69;100.00
62634;BME280;48704;50.534;6.442;2023-02-13T09:33:24;97369.72;;;8.15;100.00
62634;BME280;48704;50.534;6.442;2023-02-13T09:35:49;97375.56;;;8.74;100.00
62634;BME280;48704;50.534;6.442;2023-02-13T09:38:15;97368.88;;;9.58;100.00
62634;BME280;48704;50.534;6.442;2023-02-13T09:40:52;97370.00;;;10.16;100.00
62634;BME280;48704;50.534;6.442;2023-02-13T09:45:54;97370.28;;;10.74;100.00
62634;BME280;48704;50.534;6.442;2023-02-13T09:48:29;97372.38;;;11.31;100.00
62634;BME280;48704;50.534;6.442;2023-02-13T09:50:56;97374.97;;;11.38;100.00
62634;BME280;48704;50.534;6.442;2023-02-13T09:53:23;97374.06;;;11.99;98.62
62634;BME280;48704;50.534;6.442;2023-02-13T09:56:09;97373.22;;;11.45;93.20
62634;BME280;48704;50.534;6.442;2023-02-13T09:58:43;97368.97;;;11.40;95.97
62634;BME280;48704;50.534;6.442;2023-02-13T10:01:18;97372.03;;;11.58;98.20
62634;BME280;48704;50.534;6.442;2023-02-13T10:14:07;97396.69;;;13.19;82.60
62634;BME280;48704;50.534;6.442;2023-02-13T10:16:40;97390.09;;;13.48;79.69
62634;BME280;48704;50.534;6.442;2023-02-13T10:21:52;97390.63;;;13.21;80.07
62634;BME280;48704;50.534;6.442;2023-02-13T10:27:21;97389.41;;;13.56;79.48
62634;BME280;48704;50.534;6.442;2023-02-13T10:35:52;97377.84;;;14.82;72.85
62634;BME280;48704;50.534;6.442;2023-02-13T10:38:22;97391.06;;;14.72;74.57
62634;BME280;48704;50.534;6.442;2023-02-13T10:44:07;97377.63;;;15.34;70.06
62634;BME280;48704;50.534;6.442;2023-02-13T10:46:47;97374.53;;;15.87;65.60
62634;BME280;48704;50.534;6.442;2023-02-13T10:57:37;97366.75;;;15.73;63.22
62634;BME280;48704;50.534;6.442;2023-02-13T11:02:39;97359.69;;;15.50;63.89
62634;BME280;48704;50.534;6.442;2023-02-13T11:05:18;97362.63;;;16.01;63.65
62634;BME280;48704;50.534;6.442;2023-02-13T11:07:45;97353.72;;;16.12;60.50
62634;BME280;48704;50.534;6.442;2023-02-13T11:10:22;97358.75;;;16.50;60.73
62634;BME280;48704;50.534;6.442;2023-02-13T11:12:49;97349.22;;;16.90;60.57
62634;BME280;48704;50.534;6.442;2023-02-13T11:17:48;97338.91;;;16.02;61.84
62634;BME280;48704;50.534;6.442;2023-02-13T11:20:36;97343.00;;;15.83;58.96
62634;BME280;48704;50.534;6.442;2023-02-13T11:26:20;97335.81;;;16.85;57.00
62634;BME280;48704;50.534;6.442;2023-02-13T11:28:57;97334.00;;;17.20;53.97
62634;BME280;48704;50.534;6.442;2023-02-13T11:31:28;97326.94;;;17.01;56.00
62634;BME280;48704;50.534;6.442;2023-02-13T11:33:55;97323.06;;;16.32;58.50
62634;BME280;48704;50.534;6.442;2023-02-13T11:36:29;97323.88;;;16.66;56.43
62634;BME280;48704;50.534;6.442;2023-02-13T11:39:02;97324.00;;;16.62;55.33
62634;BME280;48704;50.534;6.442;2023-02-13T11:41:32;97316.03;;;16.28;55.77
62634;BME280;48704;50.534;6.442;2023-02-13T11:44:01;97321.66;;;17.42;53.16
62634;BME280;48704;50.534;6.442;2023-02-13T11:46:30;97312.09;;;15.74;55.82
62634;BME280;48704;50.534;6.442;2023-02-13T11:49:19;97320.22;;;16.75;55.02
62634;BME280;48704;50.534;6.442;2023-02-13T11:51:48;97318.44;;;16.44;55.20
62634;BME280;48704;50.534;6.442;2023-02-13T11:54:39;97313.84;;;16.23;53.37
62634;BME280;48704;50.534;6.442;2023-02-13T11:59:44;97309.53;;;16.46;51.35
62634;BME280;48704;50.534;6.442;2023-02-13T12:02:18;97316.28;;;17.05;50.93
62634;BME280;48704;50.534;6.442;2023-02-13T12:04:46;97305.25;;;16.68;52.45
62634;BME280;48704;50.534;6.442;2023-02-13T12:09:56;97304.69;;;16.46;52.28
62634;BME280;48704;50.534;6.442;2023-02-13T12:12:42;97299.50;;;16.87;50.27
62634;BME280;48704;50.534;6.442;2023-02-13T12:15:18;97304.78;;;16.94;51.23
62634;BME280;48704;50.534;6.442;2023-02-13T12:17:46;97299.13;;;17.42;49.70
62634;BME280;48704;50.534;6.442;2023-02-13T12:20:14;97297.66;;;16.09;48.49
62634;BME280;48704;50.534;6.442;2023-02-13T12:23:00;97291.75;;;16.73;49.78
62634;BME280;48704;50.534;6.442;2023-02-13T12:25:47;97291.09;;;16.02;49.94
62634;BME280;48704;50.534;6.442;2023-02-13T12:39:30;97282.34;;;17.23;47.00
62634;BME280;48704;50.534;6.442;2023-02-13T12:48:23;97277.59;;;17.29;43.41
62634;BME280;48704;50.534;6.442;2023-02-13T12:51:11;97276.81;;;17.67;43.56
62634;BME280;48704;50.534;6.442;2023-02-13T12:54:00;97269.41;;;17.17;44.88
62634;BME280;48704;50.534;6.442;2023-02-13T12:57:10;97267.19;;;16.73;46.65
62634;BME280;48704;50.534;6.442;2023-02-13T13:02:47;97255.38;;;17.31;44.21
62634;BME280;48704;50.534;6.442;2023-02-13T13:05:43;97258.69;;;17.45;45.46
62634;BME280;48704;50.534;6.442;2023-02-13T13:16:50;97260.16;;;17.01;45.81
62634;BME280;48704;50.534;6.442;2023-02-13T13:19:24;97262.53;;;16.94;46.77
62634;BME280;48704;50.534;6.442;2023-02-13T13:22:01;97258.03;;;17.11;46.73
62634;BME280;48704;50.534;6.442;2023-02-13T13:27:26;97249.41;;;17.68;44.50
62634;BME280;48704;50.534;6.442;2023-02-13T13:30:03;97242.63;;;17.75;44.57
62634;BME280;48704;50.534;6.442;2023-02-13T13:32:29;97252.94;;;17.54;45.89
62634;BME280;48704;50.534;6.442;2023-02-13T13:34:56;97244.47;;;17.24;45.58
62634;BME280;48704;50.534;6.442;2023-02-13T13:43:18;97244.91;;;17.08;46.71
62634;BME280;48704;50.534;6.442;2023-02-13T13:51:14;97229.47;;;18.01;45.29
62634;BME280;48704;50.534;6.442;2023-02-13T13:56:25;97233.66;;;16.84;48.50
62634;BME280;48704;50.534;6.442;2023-02-13T13:58:50;97231.09;;;17.10;47.41
62634;BME280;48704;50.534;6.442;2023-02-13T14:03:52;97226.19;;;17.20;47.40
62634;BME280;48704;50.534;6.442;2023-02-13T14:06:20;97237.50;;;16.39;48.98
62634;BME280;48704;50.534;6.442;2023-02-13T14:11:29;97233.53;;;16.22;47.50
62634;BME280;48704;50.534;6.442;2023-02-13T14:13:56;97236.41;;;16.03;48.84
62634;BME280;48704;50.534;6.442;2023-02-13T14:16:43;97232.47;;;15.77;49.39
62634;BME280;48704;50.534;6.442;2023-02-13T14:21:49;97236.13;;;16.67;46.61
62634;BME280;48704;50.534;6.442;2023-02-13T14:24:17;97233.94;;;16.62;45.98
62634;BME280;48704;50.534;6.442;2023-02-13T14:26:56;97224.47;;;16.27;47.63
62634;BME280;48704;50.534;6.442;2023-02-13T14:29:28;97222.41;;;16.84;46.19
62634;BME280;48704;50.534;6.442;2023-02-13T14:34:56;97229.72;;;16.34;47.00
62634;BME280;48704;50.534;6.442;2023-02-13T14:37:28;97226.03;;;16.28;47.00
62634;BME280;48704;50.534;6.442;2023-02-13T14:42:44;97218.84;;;16.27;47.06
62634;BME280;48704;50.534;6.442;2023-02-13T14:45:19;97225.56;;;16.53;48.01
62634;BME280;48704;50.534;6.442;2023-02-13T14:47:48;97219.44;;;16.64;47.00
62634;BME280;48704;50.534;6.442;2023-02-13T14:52:46;97214.22;;;16.38;46.94
62634;BME280;48704;50.534;6.442;2023-02-13T14:55:33;97212.72;;;17.38;45.96
62634;BME280;48704;50.534;6.442;2023-02-13T14:58:15;97203.09;;;17.89;43.13
62634;BME280;48704;50.534;6.442;2023-02-13T15:01:04;97210.00;;;17.44;44.44
62634;BME280;48704;50.534;6.442;2023-02-13T15:06:23;97206.22;;;17.32;45.36
62634;BME280;48704;50.534;6.442;2023-02-13T15:08:51;97204.63;;;17.17;45.50
62634;BME280;48704;50.534;6.442;2023-02-13T15:11:38;97206.38;;;18.52;41.22
62634;BME280;48704;50.534;6.442;2023-02-13T15:14:32;97194.69;;;19.00;40.89
62634;BME280;48704;50.534;6.442;2023-02-13T15:17:28;97199.75;;;18.20;42.69
62634;BME280;48704;50.534;6.442;2023-02-13T15:20:01;97201.31;;;18.56;43.86
62634;BME280;48704;50.534;6.442;2023-02-13T15:22:34;97197.44;;;18.19;43.80
62634;BME280;48704;50.534;6.442;2023-02-13T15:25:00;97197.38;;;19.09;41.98
62634;BME280;48704;50.534;6.442;2023-02-13T15:27:28;97195.06;;;19.54;41.18
62634;BME280;48704;50.534;6.442;2023-02-13T15:32:29;97203.22;;;18.30;42.73
62634;BME280;48704;50.534;6.442;2023-02-13T15:34:56;97197.66;;;18.70;40.79
62634;BME280;48704;50.534;6.442;2023-02-13T15:37:23;97198.47;;;18.91;40.74
62634;BME280;48704;50.534;6.442;2023-02-13T15:39:49;97200.25;;;18.54;41.86
62634;BME280;48704;50.534;6.442;2023-02-13T15:42:14;97200.22;;;17.69;43.13